sensor_id;sensor_type;location;lat;lon;timestamp;P1;durP1;ratioP1;P2;durP2;ratioP2
71759;SDS011;59919;48.112;16.280;2022-09-03T00:01:23;1.33;;;1.23;;
71759;SDS011;59919;48.112;16.280;2022-09-03T00:04:09;1.33;;;1.02;;
71759;SDS011;59919;48.112;16.280;2022-09-03T00:06:52;1.88;;;1.23;;
71759;SDS011;59919;48.112;16.280;2022-09-03T00:09:30;2.00;;;1.25;;
71759;SDS011;59919;48.112;16.280;2022-09-03T00:12:13;1.85;;;1.00;;
71759;SDS011;59919;48.112;16.280;2022-09-03T00:14:56;1.90;;;1.40;;
71759;SDS011;59919;48.112;16.280;2022-09-03T00:21:08;1.63;;;1.20;;
71759;SDS011;59919;48.112;16.280;2022-09-03T00:23:25;1.58;;;1.10;;
71759;SDS011;59919;48.112;16.280;2022-09-03T00:28:53;1.48;;;1.13;;
71759;SDS011;59919;48.112;16.280;2022-09-03T00:31:50;1.67;;;1.15;;
71759;SDS011;59919;48.112;16.280;2022-09-03T00:34:37;1.77;;;1.38;;
71759;SDS011;59919;48.112;16.280;2022-09-03T00:37:12;2.28;;;1.30;;
71759;SDS011;59919;48.112;16.280;2022-09-03T00:45:11;1.23;;;1.05;;
71759;SDS011;59919;48.112;16.280;2022-09-03T00:48:10;1.65;;;1.17;;
71759;SDS011;59919;48.112;16.280;2022-09-03T01:05:03;1.17;;;1.00;;
71759;SDS011;59919;48.112;16.280;2022-09-03T01:08:00;1.00;;;0.90;;
71759;SDS011;59919;48.112;16.280;2022-09-03T01:28:13;1.20;;;1.10;;
71759;SDS011;59919;48.112;16.280;2022-09-03T01:31:06;1.60;;;1.20;;
71759;SDS011;59919;48.112;16.280;2022-09-03T01:33:43;1.30;;;1.00;;
71759;SDS011;59919;48.112;16.280;2022-09-03T01:36:33;1.80;;;1.23;;
71759;SDS011;59919;48.112;16.280;2022-09-03T01:51:26;1.00;;;0.90;;
71759;SDS011;59919;48.112;16.280;2022-09-03T01:59:50;1.70;;;1.20;;
71759;SDS011;59919;48.112;16.280;2022-09-03T02:02:29;1.50;;;1.15;;
71759;SDS011;59919;48.112;16.280;2022-09-03T02:05:12;0.80;;;0.80;;
71759;SDS011;59919;48.112;16.280;2022-09-03T02:08:06;1.30;;;1.00;;
71759;SDS011;59919;48.112;16.280;2022-09-03T02:13:15;1.10;;;0.90;;
71759;SDS011;59919;48.112;16.280;2022-09-03T02:15:52;1.50;;;0.98;;
71759;SDS011;59919;48.112;16.280;2022-09-03T02:18:28;1.30;;;0.95;;
71759;SDS011;59919;48.112;16.280;2022-09-03T02:21:03;1.10;;;1.00;;
71759;SDS011;59919;48.112;16.280;2022-09-03T02:23:40;1.73;;;1.15;;
71759;SDS011;59919;48.112;16.280;2022-09-03T02:26:15;1.15;;;1.00;;
71759;SDS011;59919;48.112;16.280;2022-09-03T02:28:52;1.08;;;0.88;;
71759;SDS011;59919;48.112;16.280;2022-09-03T02:31:25;1.25;;;0.98;;
71759;SDS011;59919;48.112;16.280;2022-09-03T02:33:58;1.45;;;0.90;;
71759;SDS011;59919;48.112;16.280;2022-09-03T02:36:44;1.30;;;1.00;;
71759;SDS011;59919;48.112;16.280;2022-09-03T02:39:17;1.15;;;0.73;;
71759;SDS011;59919;48.112;16.280;2022-09-03T02:41:56;1.00;;;0.82;;
71759;SDS011;59919;48.112;16.280;2022-09-03T02:44:29;1.13;;;1.00;;
71759;SDS011;59919;48.112;16.280;2022-09-03T02:47:10;1.10;;;1.00;;
71759;SDS011;59919;48.112;16.280;2022-09-03T02:49:45;1.13;;;0.90;;
71759;SDS011;59919;48.112;16.280;2022-09-03T02:52:22;1.20;;;1.00;;
71759;SDS011;59919;48.112;16.280;2022-09-03T02:54:53;1.63;;;0.98;;
71759;SDS011;59919;48.112;16.280;2022-09-03T02:57:24;1.75;;;1.02;;
71759;SDS011;59919;48.112;16.280;2022-09-03T02:59:55;1.33;;;0.90;;
71759;SDS011;59919;48.112;16.280;2022-09-03T03:02:26;1.83;;;1.10;;
71759;SDS011;59919;48.112;16.280;2022-09-03T03:04:58;1.50;;;1.00;;
71759;SDS011;59919;48.112;16.280;2022-09-03T03:07:32;1.10;;;0.85;;
71759;SDS011;59919;48.112;16.280;2022-09-03T03:10:07;1.35;;;0.90;;
71759;SDS011;59919;48.112;16.280;2022-09-03T03:12:42;0.90;;;0.80;;
71759;SDS011;59919;48.112;16.280;2022-09-03T03:15:13;1.52;;;1.08;;
71759;SDS011;59919;48.112;16.280;2022-09-03T03:17:45;1.20;;;0.90;;
71759;SDS011;59919;48.112;16.280;2022-09-03T03:20:21;1.33;;;1.17;;
71759;SDS011;59919;48.112;16.280;2022-09-03T03:23:00;1.10;;;0.90;;
71759;SDS011;59919;48.112;16.280;2022-09-03T03:25:37;1.00;;;0.90;;
71759;SDS011;59919;48.112;16.280;2022-09-03T03:28:11;0.95;;;0.82;;
71759;SDS011;59919;48.112;16.280;2022-09-03T03:30:43;1.92;;;0.88;;
71759;SDS011;59919;48.112;16.280;2022-09-03T03:33:17;0.75;;;0.75;;
71759;SDS011;59919;48.112;16.280;2022-09-03T03:35:50;1.27;;;1.13;;
71759;SDS011;59919;48.112;16.280;2022-09-03T03:38:21;1.20;;;1.10;;
71759;SDS011;59919;48.112;16.280;2022-09-03T03:40:52;0.95;;;0.88;;
71759;SDS011;59919;48.112;16.280;2022-09-03T03:43:24;1.42;;;0.85;;
71759;SDS011;59919;48.112;16.280;2022-09-03T03:46:06;1.10;;;0.95;;
71759;SDS011;59919;48.112;16.280;2022-09-03T03:48:38;1.13;;;0.95;;
71759;SDS011;59919;48.112;16.280;2022-09-03T03:51:12;1.55;;;1.08;;
71759;SDS011;59919;48.112;16.280;2022-09-03T03:53:47;1.23;;;0.77;;
71759;SDS011;59919;48.112;16.280;2022-09-03T03:56:20;1.98;;;0.90;;
71759;SDS011;59919;48.112;16.280;2022-09-03T03:58:55;0.77;;;0.70;;
71759;SDS011;59919;48.112;16.280;2022-09-03T04:01:31;1.10;;;0.80;;
71759;SDS011;59919;48.112;16.280;2022-09-03T04:04:02;1.00;;;0.70;;
71759;SDS011;59919;48.112;16.280;2022-09-03T04:06:36;1.27;;;0.80;;
71759;SDS011;59919;48.112;16.280;2022-09-03T04:09:07;1.02;;;0.93;;
71759;SDS011;59919;48.112;16.280;2022-09-03T04:11:41;1.55;;;1.00;;
71759;SDS011;59919;48.112;16.280;2022-09-03T04:14:12;1.20;;;0.88;;
71759;SDS011;59919;48.112;16.280;2022-09-03T04:16:44;1.20;;;0.90;;
71759;SDS011;59919;48.112;16.280;2022-09-03T04:19:16;1.10;;;0.82;;
71759;SDS011;59919;48.112;16.280;2022-09-03T04:21:53;0.93;;;0.82;;
71759;SDS011;59919;48.112;16.280;2022-09-03T04:24:28;1.42;;;0.90;;
71759;SDS011;59919;48.112;16.280;2022-09-03T04:27:01;1.38;;;0.82;;
71759;SDS011;59919;48.112;16.280;2022-09-03T04:29:33;1.15;;;0.95;;
71759;SDS011;59919;48.112;16.280;2022-09-03T04:32:07;1.00;;;0.90;;
71759;SDS011;59919;48.112;16.280;2022-09-03T04:34:59;0.80;;;0.80;;
71759;SDS011;59919;48.112;16.280;2022-09-03T04:37:32;1.20;;;0.88;;
71759;SDS011;59919;48.112;16.280;2022-09-03T04:40:05;1.23;;;1.10;;
71759;SDS011;59919;48.112;16.280;2022-09-03T04:42:39;1.40;;;0.90;;
71759;SDS011;59919;48.112;16.280;2022-09-03T04:45:10;1.02;;;0.80;;
71759;SDS011;59919;48.112;16.280;2022-09-03T04:47:54;1.05;;;0.95;;
71759;SDS011;59919;48.112;16.280;2022-09-03T04:53:05;0.70;;;0.70;;
71759;SDS011;59919;48.112;16.280;2022-09-03T04:55:40;1.00;;;0.80;;
71759;SDS011;59919;48.112;16.280;2022-09-03T04:58:11;1.23;;;0.82;;
71759;SDS011;59919;48.112;16.280;2022-09-03T05:00:43;1.55;;;0.90;;
71759;SDS011;59919;48.112;16.280;2022-09-03T05:03:14;0.80;;;0.80;;
71759;SDS011;59919;48.112;16.280;2022-09-03T05:05:54;0.80;;;0.80;;
71759;SDS011;59919;48.112;16.280;2022-09-03T05:08:25;1.00;;;0.90;;
71759;SDS011;59919;48.112;16.280;2022-09-03T05:11:06;0.80;;;0.80;;
71759;SDS011;59919;48.112;16.280;2022-09-03T05:13:40;0.95;;;0.82;;
71759;SDS011;59919;48.112;16.280;2022-09-03T05:16:19;0.98;;;0.80;;
71759;SDS011;59919;48.112;16.280;2022-09-03T05:18:54;0.98;;;0.68;;
71759;SDS011;59919;48.112;16.280;2022-09-03T05:21:29;1.13;;;0.85;;
71759;SDS011;59919;48.112;16.280;2022-09-03T05:24:05;1.10;;;0.80;;
71759;SDS011;59919;48.112;16.280;2022-09-03T05:26:37;1.33;;;0.75;;
71759;SDS011;59919;48.112;16.280;2022-09-03T05:29:09;0.98;;;0.85;;
71759;SDS011;59919;48.112;16.280;2022-09-03T05:31:43;1.10;;;0.90;;
71759;SDS011;59919;48.112;16.280;2022-09-03T05:34:14;1.00;;;0.90;;
71759;SDS011;59919;48.112;16.280;2022-09-03T05:36:46;1.55;;;0.90;;
71759;SDS011;59919;48.112;16.280;2022-09-03T05:39:19;0.88;;;0.80;;
71759;SDS011;59919;48.112;16.280;2022-09-03T05:41:50;0.90;;;0.80;;
71759;SDS011;59919;48.112;16.280;2022-09-03T05:44:22;0.98;;;0.88;;
71759;SDS011;59919;48.112;16.280;2022-09-03T05:46:55;1.77;;;0.90;;
71759;SDS011;59919;48.112;16.280;2022-09-03T05:49:27;0.80;;;0.65;;
71759;SDS011;59919;48.112;16.280;2022-09-03T05:51:59;0.98;;;0.65;;
71759;SDS011;59919;48.112;16.280;2022-09-03T05:54:31;0.88;;;0.80;;
71759;SDS011;59919;48.112;16.280;2022-09-03T05:57:02;1.33;;;0.80;;
71759;SDS011;59919;48.112;16.280;2022-09-03T05:59:33;0.93;;;0.77;;
71759;SDS011;59919;48.112;16.280;2022-09-03T06:02:09;0.88;;;0.73;;
71759;SDS011;59919;48.112;16.280;2022-09-03T06:04:42;1.02;;;0.70;;
71759;SDS011;59919;48.112;16.280;2022-09-03T06:07:15;0.98;;;0.70;;
71759;SDS011;59919;48.112;16.280;2022-09-03T06:09:47;1.35;;;0.90;;
71759;SDS011;59919;48.112;16.280;2022-09-03T06:12:20;1.00;;;0.90;;
71759;SDS011;59919;48.112;16.280;2022-09-03T06:14:53;1.13;;;0.90;;
71759;SDS011;59919;48.112;16.280;2022-09-03T06:17:24;1.35;;;0.90;;
71759;SDS011;59919;48.112;16.280;2022-09-03T06:20:00;1.13;;;0.90;;
71759;SDS011;59919;48.112;16.280;2022-09-03T06:22:34;1.30;;;0.80;;
71759;SDS011;59919;48.112;16.280;2022-09-03T06:25:07;1.05;;;0.70;;
71759;SDS011;59919;48.112;16.280;2022-09-03T06:27:44;0.77;;;0.77;;
71759;SDS011;59919;48.112;16.280;2022-09-03T06:30:21;0.82;;;0.80;;
71759;SDS011;59919;48.112;16.280;2022-09-03T06:32:53;1.13;;;0.88;;
71759;SDS011;59919;48.112;16.280;2022-09-03T06:35:29;0.80;;;0.70;;
71759;SDS011;59919;48.112;16.280;2022-09-03T06:38:01;1.02;;;0.70;;
71759;SDS011;59919;48.112;16.280;2022-09-03T06:40:37;1.10;;;0.90;;
71759;SDS011;59919;48.112;16.280;2022-09-03T06:43:08;1.27;;;0.80;;
71759;SDS011;59919;48.112;16.280;2022-09-03T06:45:41;1.42;;;0.80;;
71759;SDS011;59919;48.112;16.280;2022-09-03T06:48:15;0.90;;;0.70;;
71759;SDS011;59919;48.112;16.280;2022-09-03T06:50:59;0.82;;;0.75;;
71759;SDS011;59919;48.112;16.280;2022-09-03T06:53:33;1.30;;;0.80;;
71759;SDS011;59919;48.112;16.280;2022-09-03T06:56:07;1.92;;;0.90;;
71759;SDS011;59919;48.112;16.280;2022-09-03T06:58:44;0.68;;;0.65;;
71759;SDS011;59919;48.112;16.280;2022-09-03T07:01:17;0.70;;;0.70;;
71759;SDS011;59919;48.112;16.280;2022-09-03T07:04:01;1.83;;;0.75;;
71759;SDS011;59919;48.112;16.280;2022-09-03T07:09:12;1.10;;;0.90;;
71759;SDS011;59919;48.112;16.280;2022-09-03T07:11:50;1.10;;;0.73;;
71759;SDS011;59919;48.112;16.280;2022-09-03T07:14:22;0.93;;;0.80;;
71759;SDS011;59919;48.112;16.280;2022-09-03T07:16:54;1.00;;;0.82;;
71759;SDS011;59919;48.112;16.280;2022-09-03T07:19:27;1.00;;;0.80;;
71759;SDS011;59919;48.112;16.280;2022-09-03T07:22:00;1.00;;;0.90;;
71759;SDS011;59919;48.112;16.280;2022-09-03T07:24:31;1.35;;;0.80;;
71759;SDS011;59919;48.112;16.280;2022-09-03T07:27:05;0.73;;;0.70;;
71759;SDS011;59919;48.112;16.280;2022-09-03T07:29:40;1.05;;;0.70;;
71759;SDS011;59919;48.112;16.280;2022-09-03T07:32:12;1.90;;;0.90;;
71759;SDS011;59919;48.112;16.280;2022-09-03T07:34:43;1.38;;;0.85;;
71759;SDS011;59919;48.112;16.280;2022-09-03T07:37:17;1.38;;;0.63;;
71759;SDS011;59919;48.112;16.280;2022-09-03T07:39:48;0.80;;;0.70;;
71759;SDS011;59919;48.112;16.280;2022-09-03T07:42:20;1.13;;;0.80;;
71759;SDS011;59919;48.112;16.280;2022-09-03T07:44:51;0.80;;;0.70;;
71759;SDS011;59919;48.112;16.280;2022-09-03T07:47:25;0.80;;;0.70;;
71759;SDS011;59919;48.112;16.280;2022-09-03T07:49:56;0.80;;;0.75;;
71759;SDS011;59919;48.112;16.280;2022-09-03T07:52:27;1.02;;;0.80;;
71759;SDS011;59919;48.112;16.280;2022-09-03T07:55:01;1.00;;;0.88;;
71759;SDS011;59919;48.112;16.280;2022-09-03T07:57:36;0.80;;;0.80;;
71759;SDS011;59919;48.112;16.280;2022-09-03T08:00:11;1.00;;;0.90;;
71759;SDS011;59919;48.112;16.280;2022-09-03T08:02:44;1.30;;;0.85;;
71759;SDS011;59919;48.112;16.280;2022-09-03T08:05:16;0.95;;;0.60;;
71759;SDS011;59919;48.112;16.280;2022-09-03T08:07:50;1.40;;;0.80;;
71759;SDS011;59919;48.112;16.280;2022-09-03T08:10:21;1.65;;;0.70;;
71759;SDS011;59919;48.112;16.280;2022-09-03T08:12:52;0.80;;;0.60;;
71759;SDS011;59919;48.112;16.280;2022-09-03T08:15:26;0.90;;;0.70;;
71759;SDS011;59919;48.112;16.280;2022-09-03T08:17:57;0.85;;;0.70;;
71759;SDS011;59919;48.112;16.280;2022-09-03T08:20:39;1.05;;;0.85;;
71759;SDS011;59919;48.112;16.280;2022-09-03T08:23:15;0.75;;;0.70;;
71759;SDS011;59919;48.112;16.280;2022-09-03T08:25:46;0.90;;;0.60;;
71759;SDS011;59919;48.112;16.280;2022-09-03T08:28:17;0.70;;;0.63;;
71759;SDS011;59919;48.112;16.280;2022-09-03T08:30:50;0.70;;;0.70;;
71759;SDS011;59919;48.112;16.280;2022-09-03T08:33:22;0.68;;;0.60;;
71759;SDS011;59919;48.112;16.280;2022-09-03T08:36:09;1.20;;;0.98;;
71759;SDS011;59919;48.112;16.280;2022-09-03T08:38:51;0.60;;;0.60;;
71759;SDS011;59919;48.112;16.280;2022-09-03T08:41:32;1.42;;;0.65;;
71759;SDS011;59919;48.112;16.280;2022-09-03T08:55:29;2.63;;;0.63;;
71759;SDS011;59919;48.112;16.280;2022-09-03T08:58:10;1.00;;;0.70;;
71759;SDS011;59919;48.112;16.280;2022-09-03T09:23:30;3.08;;;0.98;;
71759;SDS011;59919;48.112;16.280;2022-09-03T09:26:17;1.60;;;1.00;;
71759;SDS011;59919;48.112;16.280;2022-09-03T09:28:52;2.03;;;0.95;;
71759;SDS011;59919;48.112;16.280;2022-09-03T09:31:32;1.67;;;0.95;;
71759;SDS011;59919;48.112;16.280;2022-09-03T09:34:04;1.15;;;1.00;;
71759;SDS011;59919;48.112;16.280;2022-09-03T09:36:50;4.00;;;1.20;;
71759;SDS011;59919;48.112;16.280;2022-09-03T09:39:23;2.13;;;1.10;;
71759;SDS011;59919;48.112;16.280;2022-09-03T09:42:27;3.80;;;1.00;;
71759;SDS011;59919;48.112;16.280;2022-09-03T09:44:52;1.65;;;0.93;;
71759;SDS011;59919;48.112;16.280;2022-09-03T09:49:57;3.58;;;1.10;;
71759;SDS011;59919;48.112;16.280;2022-09-03T09:52:30;1.52;;;1.10;;
71759;SDS011;59919;48.112;16.280;2022-09-03T09:55:14;2.40;;;1.02;;
71759;SDS011;59919;48.112;16.280;2022-09-03T09:57:47;3.33;;;1.00;;
71759;SDS011;59919;48.112;16.280;2022-09-03T10:00:23;1.90;;;1.00;;
71759;SDS011;59919;48.112;16.280;2022-09-03T10:02:55;2.53;;;1.20;;
71759;SDS011;59919;48.112;16.280;2022-09-03T10:05:27;2.20;;;0.90;;
71759;SDS011;59919;48.112;16.280;2022-09-03T10:08:03;1.05;;;0.93;;
71759;SDS011;59919;48.112;16.280;2022-09-03T10:10:38;2.53;;;1.00;;
71759;SDS011;59919;48.112;16.280;2022-09-03T10:13:23;3.10;;;0.90;;
71759;SDS011;59919;48.112;16.280;2022-09-03T10:16:07;2.38;;;0.90;;
71759;SDS011;59919;48.112;16.280;2022-09-03T10:18:53;1.13;;;1.02;;
71759;SDS011;59919;48.112;16.280;2022-09-03T10:26:53;1.65;;;1.00;;
71759;SDS011;59919;48.112;16.280;2022-09-03T10:29:25;3.38;;;1.20;;
71759;SDS011;59919;48.112;16.280;2022-09-03T10:32:06;2.35;;;1.38;;
71759;SDS011;59919;48.112;16.280;2022-09-03T10:35:05;2.35;;;1.25;;
71759;SDS011;59919;48.112;16.280;2022-09-03T10:37:43;1.38;;;1.05;;
71759;SDS011;59919;48.112;16.280;2022-09-03T10:46:09;1.45;;;1.30;;
71759;SDS011;59919;48.112;16.280;2022-09-03T10:51:53;1.33;;;1.00;;
71759;SDS011;59919;48.112;16.280;2022-09-03T10:54:48;3.17;;;1.20;;
71759;SDS011;59919;48.112;16.280;2022-09-03T11:00:36;1.30;;;1.00;;
71759;SDS011;59919;48.112;16.280;2022-09-03T11:06:28;2.90;;;1.10;;
71759;SDS011;59919;48.112;16.280;2022-09-03T11:11:42;1.45;;;1.27;;
71759;SDS011;59919;48.112;16.280;2022-09-03T11:14:21;1.90;;;1.40;;
71759;SDS011;59919;48.112;16.280;2022-09-03T11:17:04;2.50;;;1.30;;
71759;SDS011;59919;48.112;16.280;2022-09-03T11:20:13;1.83;;;1.30;;
71759;SDS011;59919;48.112;16.280;2022-09-03T11:22:56;2.55;;;1.27;;
71759;SDS011;59919;48.112;16.280;2022-09-03T11:28:59;1.63;;;1.25;;
71759;SDS011;59919;48.112;16.280;2022-09-03T11:34:43;1.85;;;1.10;;
71759;SDS011;59919;48.112;16.280;2022-09-03T11:37:22;2.08;;;1.27;;
71759;SDS011;59919;48.112;16.280;2022-09-03T11:42:35;1.40;;;1.30;;
71759;SDS011;59919;48.112;16.280;2022-09-03T11:47:44;1.85;;;1.10;;
71759;SDS011;59919;48.112;16.280;2022-09-03T11:50:21;1.33;;;1.20;;
71759;SDS011;59919;48.112;16.280;2022-09-03T11:58:42;2.85;;;1.20;;
71759;SDS011;59919;48.112;16.280;2022-09-03T12:01:15;1.40;;;1.10;;
71759;SDS011;59919;48.112;16.280;2022-09-03T12:03:50;1.40;;;1.20;;
71759;SDS011;59919;48.112;16.280;2022-09-03T12:18:18;1.50;;;1.08;;
71759;SDS011;59919;48.112;16.280;2022-09-03T12:23:38;2.03;;;1.20;;
71759;SDS011;59919;48.112;16.280;2022-09-03T12:26:19;2.60;;;1.10;;
71759;SDS011;59919;48.112;16.280;2022-09-03T12:28:57;1.25;;;1.10;;
71759;SDS011;59919;48.112;16.280;2022-09-03T12:31:30;1.38;;;1.20;;
71759;SDS011;59919;48.112;16.280;2022-09-03T12:34:11;1.35;;;1.10;;
71759;SDS011;59919;48.112;16.280;2022-09-03T12:36:46;1.48;;;1.17;;
71759;SDS011;59919;48.112;16.280;2022-09-03T12:39:22;2.25;;;1.27;;
71759;SDS011;59919;48.112;16.280;2022-09-03T12:41:58;1.10;;;1.00;;
71759;SDS011;59919;48.112;16.280;2022-09-03T12:49:40;1.73;;;1.02;;
71759;SDS011;59919;48.112;16.280;2022-09-03T12:58:04;1.20;;;1.10;;
71759;SDS011;59919;48.112;16.280;2022-09-03T13:01:15;0.90;;;0.80;;
71759;SDS011;59919;48.112;16.280;2022-09-03T13:03:54;1.10;;;1.00;;
71759;SDS011;59919;48.112;16.280;2022-09-03T13:06:43;1.50;;;0.95;;
71759;SDS011;59919;48.112;16.280;2022-09-03T13:09:21;1.43;;;1.00;;
71759;SDS011;59919;48.112;16.280;2022-09-03T13:11:59;1.10;;;1.00;;
71759;SDS011;59919;48.112;16.280;2022-09-03T13:14:43;1.02;;;0.90;;
71759;SDS011;59919;48.112;16.280;2022-09-03T13:31:04;1.45;;;1.23;;
71759;SDS011;59919;48.112;16.280;2022-09-03T13:39:37;1.10;;;1.00;;
71759;SDS011;59919;48.112;16.280;2022-09-03T13:42:21;1.30;;;0.90;;
71759;SDS011;59919;48.112;16.280;2022-09-03T13:48:07;1.00;;;0.90;;
71759;SDS011;59919;48.112;16.280;2022-09-03T13:51:00;1.10;;;1.00;;
71759;SDS011;59919;48.112;16.280;2022-09-03T14:05:18;0.90;;;0.80;;
71759;SDS011;59919;48.112;16.280;2022-09-03T14:09:11;1.23;;;1.10;;
71759;SDS011;59919;48.112;16.280;2022-09-03T14:17:58;1.08;;;1.00;;
71759;SDS011;59919;48.112;16.280;2022-09-03T14:21:08;1.55;;;0.80;;
71759;SDS011;59919;48.112;16.280;2022-09-03T14:26:29;0.95;;;0.88;;
71759;SDS011;59919;48.112;16.280;2022-09-03T14:31:48;0.98;;;0.80;;
71759;SDS011;59919;48.112;16.280;2022-09-03T14:37:37;1.27;;;0.90;;
71759;SDS011;59919;48.112;16.280;2022-09-03T14:40:29;0.88;;;0.80;;
71759;SDS011;59919;48.112;16.280;2022-09-03T14:52:17;0.88;;;0.75;;
71759;SDS011;59919;48.112;16.280;2022-09-03T14:55:01;0.95;;;0.93;;
71759;SDS011;59919;48.112;16.280;2022-09-03T15:09:44;0.90;;;0.90;;
71759;SDS011;59919;48.112;16.280;2022-09-03T15:15:16;1.20;;;1.00;;
71759;SDS011;59919;48.112;16.280;2022-09-03T15:26:38;0.93;;;0.70;;
71759;SDS011;59919;48.112;16.280;2022-09-03T15:32:21;0.80;;;0.70;;
71759;SDS011;59919;48.112;16.280;2022-09-03T15:41:34;0.80;;;0.80;;
71759;SDS011;59919;48.112;16.280;2022-09-03T15:44:13;0.73;;;0.73;;
71759;SDS011;59919;48.112;16.280;2022-09-03T15:46:59;0.75;;;0.60;;
71759;SDS011;59919;48.112;16.280;2022-09-03T15:52:48;0.77;;;0.77;;
71759;SDS011;59919;48.112;16.280;2022-09-03T15:55:34;1.10;;;0.88;;
71759;SDS011;59919;48.112;16.280;2022-09-03T16:01:21;0.90;;;0.77;;
71759;SDS011;59919;48.112;16.280;2022-09-03T16:06:55;1.00;;;0.80;;
71759;SDS011;59919;48.112;16.280;2022-09-03T16:15:13;1.00;;;0.90;;
71759;SDS011;59919;48.112;16.280;2022-09-03T16:17:58;1.33;;;0.90;;
71759;SDS011;59919;48.112;16.280;2022-09-03T16:20:39;0.77;;;0.77;;
71759;SDS011;59919;48.112;16.280;2022-09-03T16:23:22;0.75;;;0.75;;
71759;SDS011;59919;48.112;16.280;2022-09-03T16:25:59;0.98;;;0.82;;
71759;SDS011;59919;48.112;16.280;2022-09-03T16:28:45;0.80;;;0.80;;
71759;SDS011;59919;48.112;16.280;2022-09-03T16:34:40;1.13;;;0.87;;
71759;SDS011;59919;48.112;16.280;2022-09-03T16:40:45;1.65;;;0.80;;
71759;SDS011;59919;48.112;16.280;2022-09-03T16:43:45;0.70;;;0.70;;
71759;SDS011;59919;48.112;16.280;2022-09-03T16:46:39;0.80;;;0.80;;
71759;SDS011;59919;48.112;16.280;2022-09-03T17:00:38;0.70;;;0.70;;
71759;SDS011;59919;48.112;16.280;2022-09-03T17:06:50;0.75;;;0.63;;
71759;SDS011;59919;48.112;16.280;2022-09-03T17:13:25;0.60;;;0.60;;
71759;SDS011;59919;48.112;16.280;2022-09-03T17:18:56;1.00;;;0.90;;
71759;SDS011;59919;48.112;16.280;2022-09-03T17:21:34;1.17;;;0.93;;
71759;SDS011;59919;48.112;16.280;2022-09-03T17:36:26;0.70;;;0.70;;
71759;SDS011;59919;48.112;16.280;2022-09-03T17:44:32;0.70;;;0.70;;
71759;SDS011;59919;48.112;16.280;2022-09-03T17:50:11;0.70;;;0.70;;
71759;SDS011;59919;48.112;16.280;2022-09-03T17:52:51;2.13;;;1.00;;
71759;SDS011;59919;48.112;16.280;2022-09-03T17:58:53;1.13;;;0.70;;
71759;SDS011;59919;48.112;16.280;2022-09-03T18:01:34;0.98;;;0.80;;
71759;SDS011;59919;48.112;16.280;2022-09-03T18:04:13;0.90;;;0.90;;
71759;SDS011;59919;48.112;16.280;2022-09-03T18:07:14;0.73;;;0.73;;
71759;SDS011;59919;48.112;16.280;2022-09-03T18:21:00;0.65;;;0.65;;
71759;SDS011;59919;48.112;16.280;2022-09-03T18:27:00;0.60;;;0.60;;
71759;SDS011;59919;48.112;16.280;2022-09-03T18:29:58;0.52;;;0.52;;
71759;SDS011;59919;48.112;16.280;2022-09-03T18:32:58;0.93;;;0.82;;
71759;SDS011;59919;48.112;16.280;2022-09-03T18:35:48;0.70;;;0.70;;
71759;SDS011;59919;48.112;16.280;2022-09-03T18:38:39;0.98;;;0.68;;
71759;SDS011;59919;48.112;16.280;2022-09-03T18:41:51;0.70;;;0.70;;
71759;SDS011;59919;48.112;16.280;2022-09-03T18:44:55;0.90;;;0.70;;
71759;SDS011;59919;48.112;16.280;2022-09-03T18:51:25;0.82;;;0.70;;
71759;SDS011;59919;48.112;16.280;2022-09-03T18:54:33;0.60;;;0.60;;
71759;SDS011;59919;48.112;16.280;2022-09-03T19:00:49;0.70;;;0.70;;
71759;SDS011;59919;48.112;16.280;2022-09-03T19:04:04;0.70;;;0.65;;
71759;SDS011;59919;48.112;16.280;2022-09-03T19:13:26;0.70;;;0.70;;
71759;SDS011;59919;48.112;16.280;2022-09-03T19:22:52;0.80;;;0.75;;
71759;SDS011;59919;48.112;16.280;2022-09-03T19:25:43;0.63;;;0.63;;
71759;SDS011;59919;48.112;16.280;2022-09-03T19:28:37;0.60;;;0.60;;
71759;SDS011;59919;48.112;16.280;2022-09-03T19:31:45;1.00;;;0.70;;
71759;SDS011;59919;48.112;16.280;2022-09-03T19:34:59;0.63;;;0.60;;
71759;SDS011;59919;48.112;16.280;2022-09-03T19:41:31;0.70;;;0.70;;
71759;SDS011;59919;48.112;16.280;2022-09-03T19:51:01;1.45;;;0.75;;
71759;SDS011;59919;48.112;16.280;2022-09-03T19:54:06;0.70;;;0.60;;
71759;SDS011;59919;48.112;16.280;2022-09-03T19:57:11;0.80;;;0.70;;
71759;SDS011;59919;48.112;16.280;2022-09-03T20:00:04;1.40;;;0.80;;
71759;SDS011;59919;48.112;16.280;2022-09-03T20:02:57;0.75;;;0.65;;
71759;SDS011;59919;48.112;16.280;2022-09-03T20:05:53;0.90;;;0.70;;
71759;SDS011;59919;48.112;16.280;2022-09-03T20:08:42;0.60;;;0.60;;
71759;SDS011;59919;48.112;16.280;2022-09-03T20:11:35;0.70;;;0.68;;
71759;SDS011;59919;48.112;16.280;2022-09-03T20:14:14;0.60;;;0.60;;
71759;SDS011;59919;48.112;16.280;2022-09-03T20:19:53;0.50;;;0.50;;
71759;SDS011;59919;48.112;16.280;2022-09-03T20:31:22;0.60;;;0.60;;
71759;SDS011;59919;48.112;16.280;2022-09-03T20:45:29;0.70;;;0.70;;
71759;SDS011;59919;48.112;16.280;2022-09-03T20:51:19;0.60;;;0.60;;
71759;SDS011;59919;48.112;16.280;2022-09-03T20:54:15;0.65;;;0.65;;
71759;SDS011;59919;48.112;16.280;2022-09-03T21:00:26;0.52;;;0.52;;
71759;SDS011;59919;48.112;16.280;2022-09-03T21:05:43;0.82;;;0.80;;
71759;SDS011;59919;48.112;16.280;2022-09-03T21:25:49;0.60;;;0.60;;
71759;SDS011;59919;48.112;16.280;2022-09-03T21:28:27;0.80;;;0.70;;
71759;SDS011;59919;48.112;16.280;2022-09-03T21:31:06;0.55;;;0.50;;
71759;SDS011;59919;48.112;16.280;2022-09-03T21:33:57;0.70;;;0.70;;
71759;SDS011;59919;48.112;16.280;2022-09-03T21:36:40;0.60;;;0.60;;
71759;SDS011;59919;48.112;16.280;2022-09-03T21:39:20;0.68;;;0.60;;
71759;SDS011;59919;48.112;16.280;2022-09-03T21:41:59;0.70;;;0.70;;
71759;SDS011;59919;48.112;16.280;2022-09-03T21:47:12;0.88;;;0.80;;
71759;SDS011;59919;48.112;16.280;2022-09-03T21:49:57;0.70;;;0.70;;
71759;SDS011;59919;48.112;16.280;2022-09-03T21:52:53;0.80;;;0.60;;
71759;SDS011;59919;48.112;16.280;2022-09-03T21:55:48;0.60;;;0.60;;
71759;SDS011;59919;48.112;16.280;2022-09-03T21:58:49;0.60;;;0.60;;
71759;SDS011;59919;48.112;16.280;2022-09-03T22:01:36;0.60;;;0.60;;
71759;SDS011;59919;48.112;16.280;2022-09-03T22:04:25;0.63;;;0.60;;
71759;SDS011;59919;48.112;16.280;2022-09-03T22:09:45;0.73;;;0.65;;
71759;SDS011;59919;48.112;16.280;2022-09-03T22:15:07;0.65;;;0.65;;
71759;SDS011;59919;48.112;16.280;2022-09-03T22:20:19;0.70;;;0.68;;
71759;SDS011;59919;48.112;16.280;2022-09-03T22:22:53;0.60;;;0.60;;
71759;SDS011;59919;48.112;16.280;2022-09-03T22:28:41;0.60;;;0.60;;
71759;SDS011;59919;48.112;16.280;2022-09-03T22:31:34;0.63;;;0.63;;
71759;SDS011;59919;48.112;16.280;2022-09-03T22:34:21;0.60;;;0.60;;
71759;SDS011;59919;48.112;16.280;2022-09-03T22:37:04;0.52;;;0.52;;
71759;SDS011;59919;48.112;16.280;2022-09-03T22:39:49;0.57;;;0.57;;
71759;SDS011;59919;48.112;16.280;2022-09-03T22:45:26;0.80;;;0.60;;
71759;SDS011;59919;48.112;16.280;2022-09-03T22:48:34;0.80;;;0.70;;
71759;SDS011;59919;48.112;16.280;2022-09-03T22:51:13;0.60;;;0.60;;
71759;SDS011;59919;48.112;16.280;2022-09-03T22:56:49;1.40;;;0.68;;
71759;SDS011;59919;48.112;16.280;2022-09-03T22:59:32;0.60;;;0.60;;
71759;SDS011;59919;48.112;16.280;2022-09-03T23:02:19;0.63;;;0.63;;
71759;SDS011;59919;48.112;16.280;2022-09-03T23:10:59;0.65;;;0.65;;
71759;SDS011;59919;48.112;16.280;2022-09-03T23:13:59;0.43;;;0.43;;
71759;SDS011;59919;48.112;16.280;2022-09-03T23:17:02;0.77;;;0.77;;
71759;SDS011;59919;48.112;16.280;2022-09-03T23:19:45;0.63;;;0.60;;